createdAt,value
2019-05-12T00:01:28.547Z,0.60
2019-05-12T00:03:58.698Z,0.60
2019-05-12T00:06:28.516Z,0.62
2019-05-12T00:11:49.221Z,0.57
2019-05-12T00:14:18.624Z,0.62
2019-05-12T00:19:41.798Z,0.55
2019-05-12T00:22:11.718Z,0.50
2019-05-12T00:24:40.608Z,0.40
2019-05-12T00:27:11.340Z,0.50
2019-05-12T00:29:40.430Z,0.60
2019-05-12T00:32:09.535Z,0.37
2019-05-12T00:34:38.635Z,0.50
2019-05-12T00:37:08.306Z,0.50
2019-05-12T00:39:38.217Z,0.60
2019-05-12T00:42:07.823Z,0.72
2019-05-12T00:44:39.055Z,0.57
2019-05-12T00:47:08.283Z,0.72
2019-05-12T00:49:37.924Z,0.55
2019-05-12T00:52:08.062Z,0.93
2019-05-12T00:54:37.623Z,0.65
2019-05-12T00:57:07.861Z,0.60
2019-05-12T00:59:38.286Z,0.60
2019-05-12T01:02:08.017Z,0.45
2019-05-12T01:04:38.170Z,0.50
2019-05-12T01:07:08.706Z,0.60
2019-05-12T01:09:38.545Z,0.68
2019-05-12T01:12:08.015Z,0.50
2019-05-12T01:14:38.379Z,0.47
2019-05-12T01:17:08.412Z,0.65
2019-05-12T01:19:40.404Z,0.70
2019-05-12T01:22:09.036Z,0.60
2019-05-12T01:24:38.463Z,0.50
2019-05-12T01:27:08.605Z,0.72
2019-05-12T01:29:38.586Z,0.60
2019-05-12T01:32:09.204Z,0.82
2019-05-12T01:34:38.322Z,0.93
2019-05-12T01:37:27.794Z,0.70
2019-05-12T01:39:59.720Z,0.90
2019-05-12T01:42:28.741Z,0.47
2019-05-12T01:44:58.457Z,0.50
2019-05-12T01:47:29.135Z,0.90
2019-05-12T01:49:58.372Z,1.00
2019-05-12T01:52:28.574Z,0.72
2019-05-12T01:54:59.005Z,0.70
2019-05-12T01:57:28.926Z,0.50
2019-05-12T01:59:58.591Z,1.30
2019-05-12T02:02:28.958Z,0.80
2019-05-12T02:05:03.381Z,0.93
2019-05-12T02:07:33.904Z,1.00
2019-05-12T02:10:03.211Z,1.00
2019-05-12T02:12:32.095Z,1.20
2019-05-12T02:15:01.321Z,1.12
2019-05-12T02:17:30.698Z,1.00
2019-05-12T02:19:59.789Z,0.90
2019-05-12T02:22:28.894Z,0.78
2019-05-12T02:24:58.446Z,0.60
2019-05-12T02:27:28.379Z,0.60
2019-05-12T02:29:58.604Z,0.65
2019-05-12T02:32:35.552Z,0.50
2019-05-12T02:34:58.457Z,0.55
2019-05-12T02:37:27.556Z,0.80
2019-05-12T02:39:56.645Z,0.70
2019-05-12T02:42:25.740Z,0.82
2019-05-12T02:44:55.290Z,0.60
2019-05-12T02:47:24.545Z,0.65
2019-05-12T02:49:54.432Z,0.53
2019-05-12T02:52:24.900Z,0.60
2019-05-12T02:54:59.733Z,0.50
2019-05-12T02:57:26.153Z,0.80
2019-05-12T02:59:55.954Z,0.50
2019-05-12T03:02:27.712Z,0.50
2019-05-12T03:04:58.244Z,0.50
2019-05-12T03:07:28.789Z,0.68
2019-05-12T03:10:04.603Z,0.62
2019-05-12T03:12:34.275Z,0.50
2019-05-12T03:17:49.314Z,0.50
2019-05-12T03:20:18.408Z,0.62
2019-05-12T03:22:47.503Z,0.80
2019-05-12T03:25:24.497Z,0.50
2019-05-12T03:27:48.766Z,0.68
2019-05-12T03:30:19.546Z,0.50
2019-05-12T03:32:48.798Z,0.60
2019-05-12T03:35:18.358Z,0.80
2019-05-12T03:37:47.601Z,0.85
2019-05-12T03:40:16.697Z,1.15
2019-05-12T03:42:45.790Z,0.82
2019-05-12T03:45:15.154Z,0.90
2019-05-12T03:47:45.557Z,0.90
2019-05-12T03:50:15.042Z,0.82
2019-05-12T03:52:44.967Z,0.70
2019-05-12T03:55:30.896Z,0.85
2019-05-12T03:57:45.186Z,0.82
2019-05-12T04:00:15.849Z,0.98
2019-05-12T04:02:45.558Z,0.70
2019-05-12T04:05:15.750Z,0.80
2019-05-12T04:07:45.189Z,1.07
2019-05-12T04:10:15.961Z,0.80
2019-05-12T04:12:45.233Z,0.80
2019-05-12T04:15:15.523Z,0.62
2019-05-12T04:17:46.018Z,0.65
2019-05-12T04:20:15.467Z,0.70
2019-05-12T04:22:44.923Z,0.68
2019-05-12T04:25:14.830Z,0.88
2019-05-12T04:27:45.113Z,0.90
2019-05-12T04:30:15.306Z,0.42
2019-05-12T04:32:45.313Z,0.60
2019-05-12T04:35:15.262Z,0.60
2019-05-12T04:37:45.071Z,0.60
2019-05-12T04:40:15.184Z,0.65
2019-05-12T04:42:45.134Z,0.60
2019-05-12T04:45:15.903Z,0.70
2019-05-12T04:47:45.296Z,0.60
2019-05-12T04:50:15.595Z,0.60
2019-05-12T04:52:44.963Z,1.00
2019-05-12T04:55:15.091Z,0.82
2019-05-12T04:57:45.201Z,0.82
2019-05-12T05:00:15.804Z,0.75
2019-05-12T05:02:45.781Z,0.72
2019-05-12T05:05:15.104Z,0.60
2019-05-12T05:07:45.442Z,0.85
2019-05-12T05:10:15.815Z,0.60
2019-05-12T05:12:45.153Z,0.88
2019-05-12T05:15:14.877Z,1.00
2019-05-12T05:17:44.370Z,0.93
2019-05-12T05:20:14.188Z,1.00
2019-05-12T05:22:44.038Z,0.98
2019-05-12T05:25:14.395Z,0.82
2019-05-12T05:27:44.373Z,0.82
2019-05-12T05:30:14.052Z,1.00
2019-05-12T05:32:44.482Z,0.75
2019-05-12T05:35:14.482Z,0.90
2019-05-12T05:37:44.159Z,1.02
2019-05-12T05:40:15.056Z,1.20
2019-05-12T05:42:44.179Z,0.88
2019-05-12T05:45:19.620Z,0.82
2019-05-12T05:47:48.438Z,0.90
2019-05-12T05:50:18.357Z,1.00
2019-05-12T05:52:46.745Z,0.90
2019-05-12T05:55:20.098Z,1.00
2019-05-12T05:57:46.782Z,0.93
2019-05-12T06:00:22.881Z,1.00
2019-05-12T06:02:47.221Z,1.07
2019-05-12T06:05:20.021Z,0.90
2019-05-12T06:07:47.253Z,0.70
2019-05-12T06:10:16.966Z,0.82
2019-05-12T06:12:50.671Z,0.88
2019-05-12T06:15:16.794Z,0.80
2019-05-12T06:17:47.115Z,1.10
2019-05-12T06:20:16.494Z,0.80
2019-05-12T06:22:48.593Z,0.70
2019-05-12T06:25:16.496Z,0.70
2019-05-12T06:27:45.746Z,0.55
2019-05-12T06:30:15.147Z,1.07
2019-05-12T06:32:49.702Z,0.82
2019-05-12T06:35:15.285Z,0.60
2019-05-12T06:37:57.446Z,0.93
2019-05-12T06:40:15.729Z,1.00
2019-05-12T06:42:48.353Z,0.72
2019-05-12T06:45:16.178Z,0.70
2019-05-12T06:47:49.501Z,0.75
2019-05-12T06:50:17.153Z,0.65
2019-05-12T06:52:48.973Z,0.72
2019-05-12T06:55:16.862Z,0.80
2019-05-12T06:57:50.015Z,1.25
2019-05-12T07:00:16.692Z,0.65
2019-05-12T07:02:52.346Z,0.70
2019-05-12T07:05:17.592Z,0.68
2019-05-12T07:07:46.830Z,0.60
2019-05-12T07:10:35.663Z,0.60
2019-05-12T07:12:58.968Z,0.70
2019-05-12T07:15:18.338Z,0.60
2019-05-12T07:17:50.023Z,1.00
2019-05-12T07:20:19.268Z,0.70
2019-05-12T07:22:48.806Z,0.70
2019-05-12T07:25:22.882Z,0.70
2019-05-12T07:27:54.916Z,0.53
2019-05-12T07:30:32.650Z,1.10
2019-05-12T07:33:01.486Z,2.15
2019-05-12T07:35:34.265Z,2.05
2019-05-12T07:38:04.655Z,1.20
2019-05-12T07:40:37.360Z,0.80
2019-05-12T07:43:10.015Z,0.80
2019-05-12T07:45:35.378Z,0.70
2019-05-12T07:48:09.999Z,0.50
2019-05-12T07:50:35.027Z,0.57
2019-05-12T07:53:04.566Z,0.40
2019-05-12T07:55:34.311Z,0.40
2019-05-12T07:58:14.010Z,0.40
2019-05-12T08:00:36.121Z,0.60
2019-05-12T08:03:14.681Z,0.40
2019-05-12T08:05:35.650Z,0.42
2019-05-12T08:08:10.918Z,0.53
2019-05-12T08:10:35.364Z,0.47
2019-05-12T08:13:04.736Z,0.40
2019-05-12T08:15:34.364Z,0.30
2019-05-12T08:18:07.643Z,0.60
2019-05-12T08:20:34.679Z,0.40
2019-05-12T08:23:10.181Z,0.40
2019-05-12T08:25:36.293Z,0.30
2019-05-12T08:28:14.789Z,0.50
2019-05-12T08:30:46.265Z,0.30
2019-05-12T08:33:09.816Z,0.33
2019-05-12T08:35:40.237Z,0.30
2019-05-12T08:38:09.334Z,0.40
2019-05-12T08:40:46.396Z,0.33
2019-05-12T08:43:10.734Z,0.40
2019-05-12T08:45:39.895Z,0.25
2019-05-12T08:48:15.494Z,0.30
2019-05-12T08:50:42.742Z,0.40
2019-05-12T08:53:13.924Z,0.53
2019-05-12T08:55:43.548Z,0.20
2019-05-12T08:58:28.191Z,0.47
2019-05-12T09:00:50.375Z,0.45
2019-05-12T09:03:14.392Z,0.40
2019-05-12T09:05:44.602Z,0.37
2019-05-12T09:08:14.444Z,0.30
2019-05-12T09:10:45.159Z,0.40
2019-05-12T09:13:15.109Z,0.40
2019-05-12T09:15:44.187Z,0.47
2019-05-12T09:18:14.616Z,0.30
2019-05-12T09:20:48.769Z,0.53
2019-05-12T09:23:15.579Z,0.30
2019-05-12T09:25:48.467Z,0.50
2019-05-12T09:28:18.179Z,0.60
2019-05-12T09:30:49.386Z,0.45
2019-05-12T09:33:21.604Z,0.45
2019-05-12T09:35:54.087Z,0.62
2019-05-12T09:38:26.277Z,0.30
2019-05-12T09:41:00.806Z,0.40
2019-05-12T09:43:25.046Z,0.30
2019-05-12T09:45:56.479Z,0.40
2019-05-12T09:48:24.830Z,0.40
2019-05-12T09:51:00.454Z,0.40
2019-05-12T09:53:26.697Z,0.42
2019-05-12T09:55:58.510Z,0.30
2019-05-12T09:58:28.010Z,0.28
2019-05-12T10:00:58.047Z,0.57
2019-05-12T10:03:30.782Z,0.30
2019-05-12T10:05:58.646Z,0.30
2019-05-12T10:08:33.662Z,0.30
2019-05-12T10:10:59.591Z,0.30
2019-05-12T10:13:30.256Z,0.30
2019-05-12T10:16:07.375Z,0.30
2019-05-12T10:18:33.631Z,0.30
2019-05-12T10:21:04.307Z,0.35
2019-05-12T10:23:34.049Z,0.57
2019-05-12T10:26:09.862Z,0.40
2019-05-12T10:28:36.424Z,0.62
2019-05-12T10:31:06.216Z,0.50
2019-05-12T10:33:35.487Z,0.40
2019-05-12T10:36:08.401Z,0.40
2019-05-12T10:38:36.787Z,0.30
2019-05-12T10:41:07.618Z,0.50
2019-05-12T10:43:36.785Z,0.40
2019-05-12T10:46:06.653Z,0.40
2019-05-12T10:48:35.790Z,0.42
2019-05-12T10:51:04.691Z,0.33
2019-05-12T10:53:34.100Z,0.40
2019-05-12T10:56:03.281Z,0.50
2019-05-12T10:58:33.629Z,0.37
2019-05-12T11:01:05.272Z,0.50
2019-05-12T11:03:33.857Z,0.33
2019-05-12T11:06:07.430Z,0.40
2019-05-12T11:08:34.902Z,0.62
2019-05-12T11:11:04.306Z,0.40
2019-05-12T11:13:33.858Z,0.40
2019-05-12T11:16:03.825Z,0.50
2019-05-12T11:18:34.083Z,0.60
2019-05-12T11:21:04.465Z,0.42
2019-05-12T11:23:34.465Z,0.50
2019-05-12T11:26:03.983Z,0.30
2019-05-12T11:28:33.739Z,0.47
2019-05-12T11:31:02.894Z,0.45
2019-05-12T11:33:34.124Z,0.40
2019-05-12T11:36:04.378Z,0.50
2019-05-12T11:38:33.862Z,0.65
2019-05-12T11:41:04.269Z,0.50
2019-05-12T11:43:33.867Z,0.45
2019-05-12T11:46:03.400Z,0.40
2019-05-12T11:48:33.854Z,0.50
2019-05-12T11:51:03.891Z,0.60
2019-05-12T11:53:35.036Z,0.40
2019-05-12T11:56:07.867Z,0.65
2019-05-12T11:58:34.817Z,0.50
2019-05-12T12:01:08.210Z,0.45
2019-05-12T12:03:37.509Z,0.55
2019-05-12T12:06:06.810Z,0.40
2019-05-12T12:08:37.142Z,0.60
2019-05-12T12:11:10.507Z,0.90
2019-05-12T12:13:37.783Z,0.53
2019-05-12T12:16:11.140Z,0.60
2019-05-12T12:18:38.428Z,0.60
2019-05-12T12:21:08.484Z,0.70
2019-05-12T12:23:40.934Z,0.80
2019-05-12T12:26:08.169Z,0.65
2019-05-12T12:28:37.268Z,1.10
2019-05-12T12:31:07.841Z,0.90
2019-05-12T12:33:40.659Z,1.15
2019-05-12T12:36:08.954Z,1.37
2019-05-12T12:38:37.944Z,1.40
2019-05-12T12:41:07.581Z,1.25
2019-05-12T12:43:36.549Z,1.32
2019-05-12T12:46:10.501Z,1.10
2019-05-12T12:48:37.701Z,1.10
2019-05-12T12:51:07.316Z,1.40
2019-05-12T12:53:36.413Z,1.00
2019-05-12T12:56:05.413Z,1.30
2019-05-12T12:58:34.803Z,1.10
2019-05-12T13:01:04.578Z,1.10
2019-05-12T13:03:34.128Z,1.32
2019-05-12T13:06:04.707Z,1.00
2019-05-12T13:08:34.394Z,1.10
2019-05-12T13:11:04.293Z,1.00
2019-05-12T13:13:33.464Z,1.00
2019-05-12T13:16:04.058Z,1.25
2019-05-12T13:18:36.215Z,1.20
2019-05-12T13:21:04.230Z,0.90
2019-05-12T13:23:40.484Z,1.12
2019-05-12T13:26:04.602Z,0.90
2019-05-12T13:28:34.296Z,1.17
2019-05-12T13:31:08.975Z,1.00
2019-05-12T13:33:34.310Z,1.17
2019-05-12T13:36:04.378Z,1.27
2019-05-12T13:38:38.762Z,1.02
2019-05-12T13:41:09.777Z,0.95
2019-05-12T13:43:36.914Z,1.07
2019-05-12T13:46:06.444Z,0.90
2019-05-12T13:48:35.893Z,0.95
2019-05-12T13:51:12.415Z,1.20
2019-05-12T13:53:40.486Z,1.00
2019-05-12T13:56:07.841Z,0.95
2019-05-12T13:58:42.740Z,1.15
2019-05-12T14:01:19.048Z,0.90
2019-05-12T14:03:40.020Z,0.80
2019-05-12T14:06:09.239Z,1.05
2019-05-12T14:08:38.765Z,0.82
2019-05-12T14:11:08.584Z,1.10
2019-05-12T14:13:37.555Z,1.00
2019-05-12T14:16:07.283Z,1.00
2019-05-12T14:18:36.546Z,1.10
2019-05-12T14:21:05.563Z,1.27
2019-05-12T14:23:34.563Z,0.82
2019-05-12T14:26:07.784Z,1.10
2019-05-12T14:28:34.166Z,1.20
2019-05-12T14:31:03.470Z,1.20
2019-05-12T14:33:37.518Z,1.00
2019-05-12T14:36:04.948Z,0.90
2019-05-12T14:38:34.023Z,1.00
2019-05-12T14:41:10.010Z,1.00
2019-05-12T14:43:34.154Z,0.78
2019-05-12T14:46:08.236Z,1.02
2019-05-12T14:48:34.887Z,0.80
2019-05-12T14:51:06.307Z,1.00
2019-05-12T14:53:38.373Z,1.42
2019-05-12T14:56:06.495Z,0.90
2019-05-12T14:58:35.587Z,0.90
2019-05-12T15:01:04.797Z,1.10
2019-05-12T15:03:34.195Z,0.90
2019-05-12T15:06:04.095Z,1.00
2019-05-12T15:08:38.744Z,1.00
2019-05-12T15:11:04.864Z,1.10
2019-05-12T15:13:34.295Z,0.85
2019-05-12T15:16:03.655Z,1.22
2019-05-12T15:18:32.973Z,1.10
2019-05-12T15:21:03.578Z,0.90
2019-05-12T15:23:37.113Z,1.27
2019-05-12T15:26:04.324Z,1.00
2019-05-12T15:28:33.848Z,1.00
2019-05-12T15:31:03.772Z,0.90
2019-05-12T15:33:33.707Z,0.80
2019-05-12T15:36:04.692Z,0.80
2019-05-12T15:38:34.301Z,0.90
2019-05-12T15:41:04.247Z,0.95
2019-05-12T15:43:35.762Z,0.90
2019-05-12T15:46:04.062Z,1.27
2019-05-12T15:48:34.277Z,0.80
2019-05-12T15:51:05.187Z,0.82
2019-05-12T15:53:35.952Z,0.70
2019-05-12T15:56:15.060Z,0.88
2019-05-12T15:58:35.676Z,0.85
2019-05-12T16:01:04.771Z,0.93
2019-05-12T16:03:34.308Z,0.90
2019-05-12T16:06:10.179Z,1.05
2019-05-12T16:08:34.309Z,1.10
2019-05-12T16:11:05.073Z,0.82
2019-05-12T16:13:34.136Z,1.20
2019-05-12T16:16:06.106Z,1.20
2019-05-12T16:18:34.494Z,0.90
2019-05-12T16:21:07.229Z,1.07
2019-05-12T16:23:34.615Z,0.88
2019-05-12T16:26:10.317Z,1.10
2019-05-12T16:28:35.111Z,1.00
2019-05-12T16:31:08.641Z,0.90
2019-05-12T16:33:36.113Z,1.17
2019-05-12T16:36:09.873Z,1.20
2019-05-12T16:38:35.736Z,0.78
2019-05-12T16:41:04.836Z,1.10
2019-05-12T16:43:35.003Z,1.00
2019-05-12T16:46:04.863Z,0.90
2019-05-12T16:48:36.196Z,1.05
2019-05-12T16:51:04.903Z,1.17
2019-05-12T16:53:34.175Z,1.35
2019-05-12T16:56:04.134Z,1.05
2019-05-12T16:58:35.491Z,1.00
2019-05-12T17:01:05.029Z,1.30
2019-05-12T17:03:34.247Z,1.20
2019-05-12T17:06:03.657Z,0.80
2019-05-12T17:08:34.429Z,1.10
2019-05-12T17:11:23.278Z,1.15
2019-05-12T17:13:34.535Z,1.35
2019-05-12T17:16:04.321Z,1.25
2019-05-12T17:18:34.037Z,1.10
2019-05-12T17:21:04.686Z,1.10
2019-05-12T17:23:35.216Z,1.10
2019-05-12T17:26:04.521Z,1.98
2019-05-12T17:28:34.314Z,1.00
2019-05-12T17:31:04.062Z,0.90
2019-05-12T17:33:33.962Z,0.95
2019-05-12T17:36:12.008Z,1.10
2019-05-12T17:38:34.569Z,1.10
2019-05-12T17:41:04.011Z,1.05
2019-05-12T17:43:40.004Z,1.17
2019-05-12T17:46:07.101Z,0.85
2019-05-12T17:48:37.441Z,1.10
2019-05-12T17:51:07.425Z,1.17
2019-05-12T17:53:37.774Z,1.20
2019-05-12T17:56:06.962Z,1.32
2019-05-12T17:58:43.920Z,1.00
2019-05-12T18:01:06.813Z,1.10
2019-05-12T18:03:39.339Z,1.10
2019-05-12T18:06:07.028Z,1.02
2019-05-12T18:08:38.711Z,0.93
2019-05-12T18:11:11.527Z,1.05
2019-05-12T18:13:40.146Z,1.17
2019-05-12T18:16:11.557Z,1.10
2019-05-12T18:18:43.404Z,1.00
2019-05-12T18:21:13.216Z,1.10
2019-05-12T18:23:43.610Z,1.30
2019-05-12T18:26:16.029Z,1.20
2019-05-12T18:28:44.244Z,1.15
2019-05-12T18:31:13.964Z,0.93
2019-05-12T18:33:52.199Z,1.00
2019-05-12T18:36:14.348Z,0.85
2019-05-12T18:38:44.770Z,1.10
2019-05-12T18:41:14.225Z,1.00
2019-05-12T18:43:43.625Z,1.02
2019-05-12T18:46:14.113Z,0.95
2019-05-12T18:48:43.349Z,0.78
2019-05-12T18:51:17.018Z,0.82
2019-05-12T18:53:43.946Z,0.80
2019-05-12T18:56:19.771Z,0.90
2019-05-12T18:58:44.480Z,1.10
2019-05-12T19:01:14.210Z,1.30
2019-05-12T19:03:50.609Z,1.12
2019-05-12T19:06:14.262Z,1.00
2019-05-12T19:08:43.479Z,0.85
2019-05-12T19:11:20.175Z,1.20
2019-05-12T19:13:51.883Z,1.00
2019-05-12T19:16:15.482Z,1.05
2019-05-12T19:18:47.704Z,1.15
2019-05-12T19:21:18.854Z,1.10
2019-05-12T19:23:45.739Z,1.20
2019-05-12T19:26:15.183Z,1.52
2019-05-12T19:28:52.563Z,1.12
2019-05-12T19:31:15.370Z,1.20
2019-05-12T19:33:53.314Z,1.02
2019-05-12T19:36:14.994Z,1.37
2019-05-12T19:38:44.101Z,1.40
2019-05-12T19:41:14.050Z,1.20
2019-05-12T19:43:45.337Z,1.00
2019-05-12T19:46:15.477Z,1.52
2019-05-12T19:48:49.844Z,1.05
2019-05-12T19:51:21.997Z,2.15
2019-05-12T19:53:46.034Z,1.20
2019-05-12T19:56:18.460Z,1.05
2019-05-12T19:58:46.545Z,1.20
2019-05-12T20:01:15.771Z,0.95
2019-05-12T20:03:44.864Z,1.50
2019-05-12T20:06:14.276Z,1.20
2019-05-12T20:08:43.686Z,1.10
2019-05-12T20:11:14.273Z,1.30
2019-05-12T20:13:44.449Z,1.82
2019-05-12T20:16:21.358Z,1.42
2019-05-12T20:18:49.172Z,1.47
2019-05-12T20:21:14.984Z,1.00
2019-05-12T20:23:44.181Z,1.30
2019-05-12T20:26:14.589Z,1.22
2019-05-12T20:28:50.292Z,1.45
2019-05-12T20:31:14.943Z,1.25
2019-05-12T20:33:43.939Z,1.30
2019-05-12T20:36:14.253Z,0.90
2019-05-12T20:38:44.413Z,1.50
2019-05-12T20:41:21.850Z,1.30
2019-05-12T20:43:44.510Z,1.10
2019-05-12T20:46:21.796Z,1.37
2019-05-12T20:48:44.665Z,0.98
2019-05-12T20:51:20.006Z,1.55
2019-05-12T20:53:45.401Z,1.20
2019-05-12T20:56:20.008Z,1.32
2019-05-12T20:58:46.547Z,1.32
2019-05-12T21:01:20.220Z,1.87
2019-05-12T21:03:50.735Z,1.60
2019-05-12T21:06:18.575Z,1.60
2019-05-12T21:08:53.806Z,1.45
2019-05-12T21:11:20.532Z,1.52
2019-05-12T21:13:49.462Z,1.92
2019-05-12T21:16:25.226Z,1.45
2019-05-12T21:18:55.882Z,1.70
2019-05-12T21:21:27.298Z,1.82
2019-05-12T21:23:54.048Z,1.65
2019-05-12T21:26:21.456Z,1.45
2019-05-12T21:28:50.549Z,1.72
2019-05-12T21:31:20.693Z,1.80
2019-05-12T21:33:50.785Z,1.52
2019-05-12T21:36:24.143Z,1.37
2019-05-12T21:38:53.992Z,2.08
2019-05-12T21:41:24.174Z,1.47
2019-05-12T21:43:54.399Z,1.52
2019-05-12T21:46:24.351Z,2.22
2019-05-12T21:48:56.153Z,1.70
2019-05-12T21:51:24.285Z,2.15
2019-05-12T21:53:56.217Z,1.82
2019-05-12T21:56:24.526Z,1.92
2019-05-12T21:58:57.927Z,1.50
2019-05-12T22:01:24.862Z,2.12
2019-05-12T22:03:58.869Z,2.50
2019-05-12T22:06:24.954Z,2.17
2019-05-12T22:09:01.149Z,2.00
2019-05-12T22:11:26.267Z,2.58
2019-05-12T22:14:00.057Z,1.57
2019-05-12T22:16:29.535Z,1.65
2019-05-12T22:18:59.411Z,1.90
2019-05-12T22:21:28.166Z,2.77
2019-05-12T22:23:57.259Z,1.80
2019-05-12T22:26:30.710Z,2.27
2019-05-12T22:28:57.699Z,2.27
2019-05-12T22:31:26.794Z,2.40
2019-05-12T22:33:56.409Z,1.92
2019-05-12T22:36:29.811Z,2.22
2019-05-12T22:39:00.950Z,1.95
2019-05-12T22:41:30.294Z,2.27
2019-05-12T22:43:58.618Z,3.22
2019-05-12T22:46:31.354Z,1.90
2019-05-12T22:48:58.244Z,1.87
2019-05-12T22:51:27.334Z,2.30
2019-05-12T22:54:00.478Z,2.90
2019-05-12T22:56:26.957Z,2.45
2019-05-12T22:59:00.073Z,2.98
2019-05-12T23:01:26.587Z,3.00
2019-05-12T23:03:56.093Z,2.95
2019-05-12T23:06:27.561Z,2.45
2019-05-12T23:08:55.914Z,3.33
2019-05-12T23:11:31.933Z,3.12
2019-05-12T23:13:55.745Z,2.50
2019-05-12T23:16:29.087Z,2.55
2019-05-12T23:18:55.570Z,2.52
2019-05-12T23:21:24.664Z,2.95
2019-05-12T23:23:57.477Z,2.20
2019-05-12T23:26:24.664Z,3.25
2019-05-12T23:29:20.528Z,2.08
2019-05-12T23:31:46.135Z,2.00
2019-05-12T23:34:15.126Z,2.15
2019-05-12T23:36:44.434Z,2.08
2019-05-12T23:39:14.271Z,1.62
2019-05-12T23:41:43.779Z,2.30
2019-05-12T23:44:13.564Z,2.25
2019-05-12T23:46:43.714Z,2.55
2019-05-12T23:49:14.386Z,2.37
2019-05-12T23:51:43.929Z,2.52
2019-05-12T23:54:14.350Z,2.35
2019-05-12T23:56:44.439Z,2.42
2019-05-12T23:59:13.855Z,2.25
